Time;durP1;ratioP1;P1;durP2;ratioP2;P2;SDS_P1;SDS_P2;PMS_P1;PMS_P2;Temp;Humidity;BMP_temperature;BMP_pressure;BME280_temperature;BME280_humidity;BME280_pressure;Samples;Min_cycle;Max_cycle;Signal;HPM_P1;HPM_P2
2023/06/15 00:02:41;;;;;;;5.70;5.18;;;;;;;14.05;77.83;100112.09;10422708;28;20048;-70
2023/06/15 00:07:43;;;;;;;7.97;5.47;;;;;;;14.48;74.58;100107.53;10422113;28;20100;-70
2023/06/15 00:12:45;;;;;;;6.00;5.50;;;;;;;14.04;78.13;100098.94;10422869;28;20042;-71
2023/06/15 00:17:48;;;;;;;5.55;5.10;;;;;;;13.98;79.02;100105.34;10420607;28;20122;-70
2023/06/15 00:22:51;;;;;;;5.95;5.45;;;;;;;13.95;78.42;100118.72;10421413;28;20414;-72
2023/06/15 00:28:11;;;;;;;6.38;5.88;;;;;;;14.01;78.03;100107.88;10421572;28;20458;-70
2023/06/15 00:33:13;;;;;;;5.60;5.20;;;;;;;14.58;74.80;100103.50;10420257;28;20422;-69
2023/06/15 00:38:16;;;;;;;5.10;4.78;;;;;;;14.17;76.45;100109.84;10424382;28;20442;-71
2023/06/15 00:43:21;;;;;;;5.90;5.50;;;;;;;14.11;76.98;100110.94;10422765;28;20467;-70
2023/06/15 00:48:23;;;;;;;5.80;5.20;;;;;;;14.07;77.80;100110.22;10420103;28;20414;-71
2023/06/15 00:53:25;;;;;;;6.47;5.95;;;;;;;14.02;76.61;100114.00;10421142;28;20046;-70
2023/06/15 00:58:27;;;;;;;5.10;4.55;;;;;;;14.42;73.44;100112.19;10418750;28;20494;-70
2023/06/15 01:03:30;;;;;;;5.43;4.93;;;;;;;14.39;73.41;100110.56;10419471;28;20440;-71
2023/06/15 01:08:32;;;;;;;6.00;5.55;;;;;;;14.15;76.15;100101.94;10419830;28;20076;-70
2023/06/15 01:13:36;;;;;;;4.97;4.57;;;;;;;14.32;75.49;100101.19;10420131;28;20046;-70
2023/06/15 01:18:46;;;;;;;6.13;5.60;;;;;;;14.26;76.47;100098.84;10422447;28;20455;-70
2023/06/15 01:24:11;;;;;;;5.32;4.88;;;;;;;14.27;77.70;100095.25;10421106;28;20045;-70
2023/06/15 01:29:16;;;;;;;5.63;5.22;;;;;;;14.76;74.53;100096.47;10404252;28;20045;-70
2023/06/15 01:34:18;;;;;;;6.13;5.60;;;;;;;14.44;77.86;100100.63;10420474;28;20047;-71
2023/06/15 01:39:20;;;;;;;5.35;4.95;;;;;;;14.12;78.69;100094.16;10419088;28;20073;-71
2023/06/15 01:44:22;;;;;;;6.38;5.80;;;;;;;14.02;78.46;100091.06;10420915;28;20121;-71
2023/06/15 01:49:25;;;;;;;5.85;5.45;;;;;;;14.14;78.58;100090.53;10420752;28;20111;-70
2023/06/15 01:54:27;;;;;;;6.18;5.78;;;;;;;14.19;78.54;100095.59;10417545;28;20526;-71
2023/06/15 01:59:29;;;;;;;5.25;4.78;;;;;;;14.26;76.38;100081.19;10417919;28;20132;-70
2023/06/15 02:04:31;;;;;;;5.50;5.10;;;;;;;14.36;75.80;100082.47;10418064;28;20476;-71
2023/06/15 02:09:34;;;;;;;5.90;5.38;;;;;;;14.16;77.67;100081.66;10418095;28;20487;-71
2023/06/15 02:14:36;;;;;;;6.22;5.47;;;;;;;14.28;76.03;100081.09;10418519;28;20077;-71
2023/06/15 02:19:37;;;;;;;6.05;5.55;;;;;;;14.45;75.62;100083.81;10419919;28;20124;-70
2023/06/15 02:24:39;;;;;;;6.93;5.15;;;;;;;14.59;74.99;100081.41;10419278;28;20049;-70
2023/06/15 02:29:41;;;;;;;5.60;5.20;;;;;;;14.62;75.17;100081.28;10418705;28;20041;-70
2023/06/15 02:34:43;;;;;;;5.07;4.63;;;;;;;14.36;75.51;100081.59;10419716;28;20129;-70
2023/06/15 02:39:45;;;;;;;5.50;5.10;;;;;;;14.25;75.50;100065.38;10418345;28;20033;-70
2023/06/15 02:44:47;;;;;;;5.55;5.15;;;;;;;14.15;76.93;100075.53;10420469;28;20422;-70
2023/06/15 02:49:49;;;;;;;6.55;6.13;;;;;;;13.86;77.84;100079.50;10425828;28;20472;-70
2023/06/15 02:54:51;;;;;;;5.60;5.20;;;;;;;13.82;79.64;100078.78;10408940;28;20048;-70
2023/06/15 02:59:54;;;;;;;7.10;6.40;;;;;;;13.85;80.76;100081.25;10425123;28;20041;-70
2023/06/15 03:04:56;;;;;;;6.07;5.60;;;;;;;14.02;80.73;100080.50;10424691;28;20053;-70
2023/06/15 03:10:08;;;;;;;6.00;5.50;;;;;;;14.10;80.86;100085.44;10424775;28;20522;-70
2023/06/15 03:15:16;;;;;;;6.03;5.50;;;;;;;13.86;81.91;100090.91;10425915;28;20049;-70
2023/06/15 03:20:21;;;;;;;5.63;5.22;;;;;;;13.83;82.03;100096.31;10425032;28;20045;-70
2023/06/15 03:25:23;;;;;;;5.63;5.15;;;;;;;13.88;82.19;100088.19;10424497;28;20053;-70
2023/06/15 03:30:29;;;;;;;6.40;5.90;;;;;;;13.85;82.89;100098.88;10423494;28;20049;-71
2023/06/15 03:35:33;;;;;;;6.20;5.72;;;;;;;13.85;81.46;100098.88;10423768;28;20053;-71
2023/06/15 03:40:38;;;;;;;8.25;7.13;;;;;;;13.79;82.15;100097.38;10424423;28;20037;-70
2023/06/15 03:45:40;;;;;;;6.35;5.78;;;;;;;13.87;82.22;100100.56;10424092;28;20046;-72
2023/06/15 03:50:43;;;;;;;6.80;6.40;;;;;;;13.59;84.72;100097.38;10424030;28;20048;-72
2023/06/15 03:55:45;;;;;;;6.53;6.03;;;;;;;13.52;85.99;100095.94;10424537;28;20124;-71
2023/06/15 04:00:47;;;;;;;6.60;6.00;;;;;;;13.49;87.34;100106.63;10423757;28;20527;-71
2023/06/15 04:05:51;;;;;;;6.22;5.82;;;;;;;13.53;87.44;100111.72;10422841;28;20519;-70
2023/06/15 04:10:53;;;;;;;6.50;5.90;;;;;;;14.25;83.92;100107.69;10421581;28;20511;-70
2023/06/15 04:15:55;;;;;;;7.50;6.88;;;;;;;14.16;83.55;100108.09;10422645;28;20064;-70
2023/06/15 04:20:58;;;;;;;6.82;6.30;;;;;;;13.86;87.87;100112.06;10421837;28;20053;-70
2023/06/15 04:26:00;;;;;;;7.60;6.90;;;;;;;13.81;88.01;100110.50;10421235;28;20049;-70
2023/06/15 04:31:12;;;;;;;8.18;7.22;;;;;;;13.91;88.00;100117.13;10421214;28;20099;-71
2023/06/15 04:36:16;;;;;;;7.30;6.80;;;;;;;14.05;87.02;100120.03;10421465;28;20065;-70
2023/06/15 04:41:24;;;;;;;6.82;6.40;;;;;;;14.12;85.43;100115.28;10423628;28;20072;-71
2023/06/15 04:46:32;;;;;;;7.10;6.60;;;;;;;14.34;85.99;100113.44;10421004;28;20103;-70
2023/06/15 04:51:38;;;;;;;10.75;7.45;;;;;;;14.54;84.59;100115.16;10432741;22;20132;-68
2023/06/15 04:56:41;;;;;;;7.13;6.63;;;;;;;14.52;84.23;100121.44;10416880;28;20056;-68
2023/06/15 05:01:43;;;;;;;7.57;7.07;;;;;;;14.53;84.48;100120.53;10416936;28;20047;-68
2023/06/15 05:06:56;;;;;;;6.68;6.20;;;;;;;14.46;84.45;100119.91;10416588;28;20057;-68
2023/06/15 05:11:58;;;;;;;7.10;6.60;;;;;;;14.57;83.79;100116.81;10416387;28;20576;-68
2023/06/15 05:17:03;;;;;;;6.45;5.95;;;;;;;14.71;82.84;100118.81;10415905;28;20056;-68
2023/06/15 05:22:06;;;;;;;7.95;7.35;;;;;;;14.64;82.47;100119.06;10415777;28;20046;-68
2023/06/15 05:27:11;;;;;;;7.13;6.63;;;;;;;14.78;84.05;100125.50;10416840;28;20103;-68
2023/06/15 05:32:16;;;;;;;9.32;6.43;;;;;;;14.75;82.01;100121.25;10415706;28;20041;-68
2023/06/15 05:37:20;;;;;;;8.57;7.82;;;;;;;14.79;81.25;100121.97;10415140;28;20419;-68
2023/06/15 05:42:21;;;;;;;8.20;7.22;;;;;;;14.78;81.25;100130.81;10415134;28;20507;-68
2023/06/15 05:47:24;;;;;;;6.80;6.30;;;;;;;14.99;80.83;100136.88;10414594;28;20136;-68
2023/06/15 05:52:27;;;;;;;6.88;6.28;;;;;;;15.24;79.23;100128.59;10414639;28;20123;-68
2023/06/15 05:57:31;;;;;;;6.88;6.38;;;;;;;15.19;79.49;100133.25;10416038;28;20099;-68
2023/06/15 06:02:33;;;;;;;7.20;6.60;;;;;;;15.25;78.74;100141.75;10415381;28;20429;-68
2023/06/15 06:07:34;;;;;;;9.30;7.32;;;;;;;15.47;78.63;100138.03;10414521;28;20042;-67
2023/06/15 06:12:36;;;;;;;9.98;6.90;;;;;;;15.32;78.52;100147.63;10413961;28;20532;-68
2023/06/15 06:17:39;;;;;;;7.75;6.93;;;;;;;15.26;78.93;100150.53;10415356;28;20430;-68
2023/06/15 06:23:03;;;;;;;7.53;6.97;;;;;;;15.28;78.82;100152.19;10413441;28;20047;-68
2023/06/15 06:28:04;;;;;;;6.53;6.03;;;;;;;15.58;76.59;100152.47;10413831;28;20051;-68
2023/06/15 06:33:06;;;;;;;6.78;6.25;;;;;;;15.47;78.93;100152.13;10415521;28;20045;-68
2023/06/15 06:38:08;;;;;;;7.57;6.97;;;;;;;15.45;80.05;100164.63;10413804;28;20487;-68
2023/06/15 06:43:10;;;;;;;6.85;6.35;;;;;;;15.49;81.72;100165.28;10415742;28;20069;-68
2023/06/15 06:48:12;;;;;;;10.30;6.90;;;;;;;15.83;79.63;100164.47;10416115;28;20040;-68
2023/06/15 06:53:14;;;;;;;6.93;6.22;;;;;;;15.86;80.49;100162.53;10415954;28;20038;-68
2023/06/15 06:58:15;;;;;;;6.60;6.00;;;;;;;15.96;78.28;100164.72;10415001;28;20057;-68
2023/06/15 07:03:17;;;;;;;8.98;8.07;;;;;;;16.02;81.80;100165.22;10414400;28;20487;-68
2023/06/15 07:08:21;;;;;;;9.90;6.72;;;;;;;15.85;81.90;100170.56;10416199;28;20042;-68
2023/06/15 07:13:23;;;;;;;6.88;6.38;;;;;;;15.99;80.27;100176.03;10414118;28;20045;-68
2023/06/15 07:18:25;;;;;;;10.35;6.72;;;;;;;16.10;81.25;100176.31;10414496;28;20476;-68
2023/06/15 07:23:28;;;;;;;11.88;7.75;;;;;;;16.16;80.23;100172.50;10413758;28;20038;-68
2023/06/15 07:28:50;;;;;;;10.45;6.05;;;;;;;16.24;79.09;100167.63;10414138;28;20048;-66
2023/06/15 07:33:53;;;;;;;9.75;6.45;;;;;;;16.55;78.59;100163.31;10420586;28;20449;-68
2023/06/15 07:38:56;;;;;;;12.98;6.47;;;;;;;16.71;77.69;100166.84;10421021;28;20414;-69
2023/06/15 07:43:57;;;;;;;6.05;5.45;;;;;;;17.03;75.95;100161.59;10421165;28;20128;-69
2023/06/15 07:48:59;;;;;;;5.72;5.22;;;;;;;17.53;71.39;100158.69;10420921;28;20116;-68
2023/06/15 07:54:01;;;;;;;4.97;3.97;;;;;;;18.07;66.18;100160.84;10421625;28;20411;-68
2023/06/15 07:59:03;;;;;;;4.50;4.10;;;;;;;18.00;67.72;100157.69;10419177;28;20069;-68
2023/06/15 08:04:05;;;;;;;6.18;4.63;;;;;;;18.08;66.97;100160.75;10420837;28;20058;-68
2023/06/15 08:09:07;;;;;;;3.65;3.35;;;;;;;18.70;62.48;100167.63;10420106;28;20133;-69
2023/06/15 08:14:09;;;;;;;3.78;3.40;;;;;;;18.55;63.66;100158.72;10420201;28;20038;-68
2023/06/15 08:19:11;;;;;;;3.72;3.05;;;;;;;18.52;64.22;100162.47;10419728;28;20037;-68
2023/06/15 08:24:13;;;;;;;2.85;2.65;;;;;;;19.30;60.20;100160.16;10419565;28;20522;-68
2023/06/15 08:29:15;;;;;;;2.50;2.30;;;;;;;19.63;61.39;100158.88;10420567;28;20423;-68
2023/06/15 08:34:24;;;;;;;2.58;2.17;;;;;;;19.95;57.67;100154.00;10420360;28;20041;-68
2023/06/15 08:39:26;;;;;;;2.85;2.60;;;;;;;19.97;57.35;100151.25;10419389;28;20061;-68
2023/06/15 08:44:30;;;;;;;3.20;2.67;;;;;;;20.42;54.44;100148.03;10418097;28;20048;-69
2023/06/15 08:49:32;;;;;;;3.20;2.92;;;;;;;20.32;53.66;100148.78;10418207;28;20061;-69
2023/06/15 08:54:40;;;;;;;3.75;2.67;;;;;;;20.63;51.95;100155.53;10438624;28;20148;-69
2023/06/15 08:59:42;;;;;;;2.97;2.13;;;;;;;21.34;53.79;100144.06;10376046;28;20131;-68
2023/06/15 09:04:44;;;;;;;2.97;2.55;;;;;;;22.42;47.02;100148.22;10422365;28;20037;-68
2023/06/15 09:10:16;;;;;;;2.60;2.40;;;;;;;21.61;48.33;100145.63;10453783;28;20041;-68
2023/06/15 09:15:22;;;;;;;5.03;3.00;;;;;;;22.05;47.76;100139.53;10414099;28;20071;-69
2023/06/15 09:20:26;;;;;;;4.03;2.53;;;;;;;22.55;46.42;100134.72;10418367;28;20047;-69
2023/06/15 09:25:33;;;;;;;3.40;2.53;;;;;;;22.95;46.25;100139.56;10417757;28;20092;-69
2023/06/15 09:30:39;;;;;;;4.10;2.80;;;;;;;23.07;44.52;100140.41;10417547;28;20445;-69
2023/06/15 09:36:00;;;;;;;3.70;2.97;;;;;;;23.53;43.16;100133.88;10416998;28;20080;-69
2023/06/15 09:41:03;;;;;;;4.00;2.72;;;;;;;23.47;43.42;100121.84;10418028;28;20091;-69
2023/06/15 09:46:21;;;;;;;3.58;2.38;;;;;;;23.39;41.89;100124.31;10417100;28;20045;-69
2023/06/15 09:51:27;;;;;;;2.95;2.75;;;;;;;23.25;45.19;100114.75;10416991;28;20037;-69
2023/06/15 09:56:36;;;;;;;6.05;3.70;;;;;;;23.58;44.22;100111.03;10416449;28;20049;-69
2023/06/15 10:01:38;;;;;;;8.18;3.45;;;;;;;23.81;42.24;100119.84;10416950;28;20045;-68
2023/06/15 10:06:44;;;;;;;4.22;3.08;;;;;;;23.46;44.70;100108.53;10416572;28;20125;-69
2023/06/15 10:11:48;;;;;;;;;;;;;;;23.72;43.92;100106.34;10416112;28;20163;-69
2023/06/15 10:16:57;;;;;;;4.60;3.20;;;;;;;23.16;45.93;100108.31;10415931;28;20355;-68
2023/06/15 10:22:00;;;;;;;16.48;3.45;;;;;;;24.14;44.43;100088.38;10415322;28;20491;-67
2023/06/15 10:27:02;;;;;;;6.97;3.28;;;;;;;24.37;45.03;100091.75;10416330;28;20054;-68
2023/06/15 10:32:09;;;;;;;5.70;2.63;;;;;;;24.53;41.31;100085.88;10415853;28;20096;-68
2023/06/15 10:37:29;;;;;;;9.40;3.03;;;;;;;24.85;41.99;100083.81;10416700;28;20446;-68
2023/06/15 10:42:42;;;;;;;6.30;3.33;;;;;;;25.34;39.95;100078.50;10415945;28;20037;-68
2023/06/15 10:47:50;;;;;;;3.83;3.00;;;;;;;25.27;40.92;100067.44;10415931;28;20072;-68
2023/06/15 10:52:53;;;;;;;3.45;2.90;;;;;;;25.48;39.62;100069.16;10416158;28;20045;-68
2023/06/15 10:58:15;;;;;;;5.10;2.90;;;;;;;25.40;38.00;100051.03;10415312;28;20069;-68
2023/06/15 11:03:26;;;;;;;5.20;2.30;;;;;;;24.73;37.48;100051.81;10416674;28;20053;-68
2023/06/15 11:08:40;;;;;;;7.05;2.88;;;;;;;24.47;38.78;100049.66;10420084;28;20088;-68
2023/06/15 11:13:56;;;;;;;5.40;2.67;;;;;;;25.49;37.74;100039.38;10420705;28;20053;-68
2023/06/15 11:19:11;;;;;;;4.63;2.60;;;;;;;25.76;39.17;100046.72;10421931;28;20491;-69
2023/06/15 11:24:16;;;;;;;2.60;2.23;;;;;;;26.13;36.13;100044.06;10420583;28;20053;-69
2023/06/15 11:29:25;;;;;;;6.17;2.50;;;;;;;26.59;38.19;100044.97;10421454;28;20358;-69
2023/06/15 11:34:27;;;;;;;7.65;3.38;;;;;;;26.38;36.15;100036.25;10422241;28;20087;-68
2023/06/15 11:39:31;;;;;;;4.68;2.88;;;;;;;25.18;37.77;100030.66;10421245;28;20044;-68
2023/06/15 11:44:32;;;;;;;4.20;2.78;;;;;;;23.97;41.87;100033.47;10420601;28;20046;-68
2023/06/15 11:49:38;;;;;;;5.72;2.92;;;;;;;23.29;43.62;100050.97;10420179;28;20483;-68
2023/06/15 11:54:39;;;;;;;6.87;2.60;;;;;;;22.59;43.76;100050.44;10420710;28;20406;-69
2023/06/15 11:59:55;;;;;;;6.57;3.75;;;;;;;22.08;50.99;100061.66;10420268;28;20037;-69
2023/06/15 12:04:59;;;;;;;10.48;5.03;;;;;;;20.53;65.02;100043.13;10420894;28;20395;-70
2023/06/15 12:10:03;;;;;;;7.68;4.70;;;;;;;19.45;72.41;100042.78;10420233;28;20042;-69
2023/06/15 12:15:06;;;;;;;6.55;4.22;;;;;;;18.67;76.03;100052.31;10420427;28;20041;-69
2023/06/15 12:20:09;;;;;;;8.68;4.25;;;;;;;18.46;71.42;100050.19;10419783;28;20107;-69
2023/06/15 12:25:13;;;;;;;10.23;4.72;;;;;;;18.25;84.06;100023.16;10419832;28;20042;-69
2023/06/15 12:30:17;;;;;;;6.22;4.72;;;;;;;18.36;75.64;100018.00;10419254;28;20042;-69
2023/06/15 12:35:28;;;;;;;6.43;4.30;;;;;;;18.40;79.43;100012.38;10419785;28;20053;-69
2023/06/15 12:40:30;;;;;;;5.65;3.53;;;;;;;18.62;75.57;100003.84;10420132;28;20449;-68
2023/06/15 12:45:33;;;;;;;3.92;3.25;;;;;;;18.85;73.84;99993.50;10420211;28;20037;-68
2023/06/15 12:50:35;;;;;;;3.58;3.08;;;;;;;19.27;71.55;99986.25;10419226;28;20073;-70
2023/06/15 12:55:36;;;;;;;2.95;2.67;;;;;;;20.21;65.80;99977.88;10419240;28;20367;-69
2023/06/15 13:00:38;;;;;;;3.20;2.92;;;;;;;21.32;66.41;99969.53;10418834;28;20044;-68
2023/06/15 13:05:43;;;;;;;3.95;2.25;;;;;;;22.13;58.87;99963.16;10417182;28;20041;-68
2023/06/15 13:10:45;;;;;;;4.10;1.83;;;;;;;22.50;49.30;99970.84;10418650;28;20042;-69
2023/06/15 13:15:47;;;;;;;4.25;1.73;;;;;;;22.62;46.91;99967.16;10418680;28;20069;-69
2023/06/15 13:20:49;;;;;;;3.92;2.08;;;;;;;22.79;41.92;99963.03;10424205;28;20128;-70
2023/06/15 13:25:51;;;;;;;2.75;1.88;;;;;;;22.77;44.04;99964.16;10443815;28;20133;-70
2023/06/15 13:30:53;;;;;;;6.55;2.03;;;;;;;22.78;42.08;99958.66;10416964;28;20117;-70
2023/06/15 13:35:57;;;;;;;4.03;1.95;;;;;;;23.26;42.92;99954.69;10417387;28;20045;-70
2023/06/15 13:40:58;;;;;;;3.38;2.35;;;;;;;23.33;39.68;99939.75;10450893;28;20076;-70
2023/06/15 13:46:00;;;;;;;2.30;1.70;;;;;;;22.59;40.32;99951.31;10457821;28;20041;-69
2023/06/15 13:51:02;;;;;;;3.10;1.52;;;;;;;22.33;40.89;99949.94;10458146;28;20094;-69
2023/06/15 13:56:04;;;;;;;2.60;2.00;;;;;;;22.07;41.76;99955.56;10440125;28;20041;-69
2023/06/15 14:01:06;;;;;;;5.25;2.00;;;;;;;21.79;43.85;99946.22;10416930;28;20128;-69
2023/06/15 14:06:07;;;;;;;2.17;1.88;;;;;;;21.50;44.79;99935.16;10416701;28;20495;-69
2023/06/15 14:11:09;;;;;;;2.78;1.92;;;;;;;21.66;45.69;99938.31;10416236;28;20490;-69
2023/06/15 14:16:11;;;;;;;4.82;2.40;;;;;;;21.77;44.97;99936.63;10415552;28;20041;-69
2023/06/15 14:21:13;;;;;;;2.88;1.98;;;;;;;22.11;43.73;99929.41;10414037;28;20076;-69
2023/06/15 14:26:15;;;;;;;2.33;2.05;;;;;;;22.31;41.52;99927.78;10416065;28;20050;-69
2023/06/15 14:31:16;;;;;;;2.10;1.77;;;;;;;22.54;40.50;99921.41;10441932;28;20037;-69
2023/06/15 14:36:18;;;;;;;3.03;1.77;;;;;;;22.78;41.78;99915.78;10455834;28;20055;-69
2023/06/15 14:41:20;;;;;;;3.60;1.90;;;;;;;22.74;40.95;99911.66;10456588;28;20044;-69
2023/06/15 14:46:22;;;;;;;2.72;1.60;;;;;;;23.05;41.58;99906.41;10457331;28;20116;-69
2023/06/15 14:51:24;;;;;;;2.28;1.83;;;;;;;24.21;37.58;99896.16;10456454;28;20041;-69
2023/06/15 14:56:29;;;;;;;2.05;1.70;;;;;;;24.45;36.43;99894.94;10456239;28;20594;-69
2023/06/15 15:01:30;;;;;;;7.00;2.08;;;;;;;24.79;35.00;99903.41;10457515;28;20037;-69
2023/06/15 15:06:32;;;;;;;2.13;1.70;;;;;;;24.86;36.54;99888.41;10456022;28;20387;-69
2023/06/15 15:11:34;;;;;;;4.38;2.00;;;;;;;24.82;36.54;99900.44;10456972;28;20112;-68
2023/06/15 15:16:36;;;;;;;3.83;2.10;;;;;;;24.80;35.38;99894.38;10456529;28;20529;-69
2023/06/15 15:21:37;;;;;;;3.05;2.30;;;;;;;24.88;35.76;99899.84;10456612;28;20090;-69
2023/06/15 15:26:39;;;;;;;2.05;1.80;;;;;;;24.24;37.96;99897.72;10456531;28;20049;-69
2023/06/15 15:31:41;;;;;;;3.03;1.90;;;;;;;23.53;38.72;99898.63;10454806;28;20033;-69
2023/06/15 15:36:43;;;;;;;4.18;2.15;;;;;;;23.20;40.65;99901.56;10455128;28;20041;-69
2023/06/15 15:41:45;;;;;;;3.17;2.38;;;;;;;22.52;42.92;99912.63;10455381;28;20140;-70
2023/06/15 15:46:47;;;;;;;5.28;2.95;;;;;;;22.73;40.51;99909.97;10455571;28;20045;-72
2023/06/15 15:51:49;;;;;;;3.72;2.72;;;;;;;22.67;41.69;99910.50;10457030;28;20116;-72
2023/06/15 15:56:50;;;;;;;3.30;2.40;;;;;;;22.66;40.39;99911.47;10462521;28;20041;-69
2023/06/15 16:01:55;;;;;;;3.13;2.83;;;;;;;23.04;39.96;99910.94;10462703;28;20048;-69
2023/06/15 16:06:57;;;;;;;3.95;3.13;;;;;;;23.12;39.42;99910.28;10463269;28;20077;-69
2023/06/15 16:11:59;;;;;;;3.35;2.72;;;;;;;23.56;39.02;99918.97;10462721;28;20064;-70
2023/06/15 16:17:00;;;;;;;3.95;3.30;;;;;;;23.44;39.01;99907.47;10432536;28;20049;-70
2023/06/15 16:22:06;;;;;;;3.90;3.50;;;;;;;23.14;38.00;99917.19;10463561;28;20037;-70
2023/06/15 16:27:07;;;;;;;4.07;2.60;;;;;;;23.33;38.30;99916.47;10462758;28;20044;-70
2023/06/15 16:32:09;;;;;;;3.17;2.65;;;;;;;23.03;38.13;99914.59;10462013;28;20123;-70
2023/06/15 16:37:11;;;;;;;5.25;2.65;;;;;;;22.65;38.88;99921.34;10460500;28;20051;-71
2023/06/15 16:42:15;;;;;;;3.25;2.90;;;;;;;22.45;39.80;99919.47;10461687;28;20048;-70
2023/06/15 16:47:17;;;;;;;4.70;3.40;;;;;;;22.38;40.26;99918.28;10459151;28;20060;-70
2023/06/15 16:52:21;;;;;;;6.45;3.70;;;;;;;22.52;40.51;99925.16;10423032;28;20041;-73
2023/06/15 16:57:22;;;;;;;6.20;3.17;;;;;;;22.28;40.35;99930.75;10418646;28;20136;-74
2023/06/15 17:02:24;;;;;;;2.92;2.28;;;;;;;22.47;40.45;99935.41;10417380;28;20079;-74
2023/06/15 17:07:26;;;;;;;3.80;2.80;;;;;;;22.21;43.00;99932.19;10416455;28;20388;-74
2023/06/15 17:12:28;;;;;;;3.88;3.42;;;;;;;22.08;44.66;99933.16;10418134;28;20045;-74
2023/06/15 17:17:30;;;;;;;3.47;3.08;;;;;;;21.86;45.40;99938.56;10419326;28;20121;-74
2023/06/15 17:22:32;;;;;;;6.88;3.10;;;;;;;21.89;45.39;99944.50;10418162;28;20041;-74
2023/06/15 17:27:33;;;;;;;4.18;3.78;;;;;;;21.92;46.18;99954.13;10417758;28;20061;-74
2023/06/15 17:32:35;;;;;;;7.40;4.18;;;;;;;21.79;46.49;99953.41;10417395;28;20376;-73
2023/06/15 17:37:37;;;;;;;3.35;3.13;;;;;;;21.72;47.24;99952.19;10417730;28;20049;-74
2023/06/15 17:42:39;;;;;;;3.88;3.55;;;;;;;21.70;47.46;99946.13;10417315;28;20526;-73
2023/06/15 17:47:41;;;;;;;3.80;3.45;;;;;;;21.52;47.61;99943.94;10417197;28;20061;-73
2023/06/15 17:52:42;;;;;;;6.20;3.97;;;;;;;21.24;47.91;99947.84;10416709;28;20038;-73
2023/06/15 17:57:44;;;;;;;4.80;3.63;;;;;;;21.05;48.56;99950.25;10416876;28;20039;-74
2023/06/15 18:02:46;;;;;;;3.58;3.28;;;;;;;20.91;47.66;99948.63;10416352;28;20112;-74
2023/06/15 18:07:49;;;;;;;4.45;3.33;;;;;;;20.88;48.10;99948.84;10417662;28;20128;-74
2023/06/15 18:12:51;;;;;;;4.15;3.72;;;;;;;20.72;48.75;99953.63;10416010;28;20088;-74
2023/06/15 18:17:52;;;;;;;3.45;3.25;;;;;;;20.51;49.50;99954.28;10417787;28;20045;-77
2023/06/15 18:22:54;;;;;;;3.85;3.55;;;;;;;20.39;50.45;99948.00;10415471;28;20120;-74
2023/06/15 18:27:56;;;;;;;4.88;3.97;;;;;;;20.15;53.04;99940.00;10416498;28;20124;-73
2023/06/15 18:33:02;;;;;;;6.65;3.08;;;;;;;19.91;53.47;99939.09;10415137;28;20620;-74
2023/06/15 18:38:04;;;;;;;3.53;3.22;;;;;;;19.79;54.56;99945.28;10413907;28;20573;-74
2023/06/15 18:43:06;;;;;;;4.80;4.18;;;;;;;19.80;54.84;99945.22;10414363;28;20046;-74
2023/06/15 18:48:07;;;;;;;4.88;4.38;;;;;;;19.79;55.79;99938.19;10415328;28;20049;-74
2023/06/15 18:53:09;;;;;;;4.13;3.72;;;;;;;19.44;57.51;99943.31;10412942;28;20056;-74
2023/06/15 18:58:11;;;;;;;4.40;4.00;;;;;;;19.36;58.56;99950.97;10426585;28;20084;-73
2023/06/15 19:03:13;;;;;;;4.03;3.72;;;;;;;19.22;59.80;99953.75;10448057;28;20041;-75
2023/06/15 19:08:15;;;;;;;6.85;5.00;;;;;;;19.54;59.91;99949.69;10415133;28;20045;-74
2023/06/15 19:13:22;;;;;;;5.00;4.53;;;;;;;19.31;60.97;99948.63;10437421;28;20487;-74
2023/06/15 19:18:24;;;;;;;4.70;4.35;;;;;;;18.90;62.69;99959.44;10457191;28;20087;-74
2023/06/15 19:23:26;;;;;;;5.00;4.50;;;;;;;18.67;63.35;99956.47;10456325;28;20045;-74
2023/06/15 19:28:28;;;;;;;5.10;4.63;;;;;;;18.66;64.10;99965.41;10461029;28;20502;-74
2023/06/15 19:33:29;;;;;;;5.40;4.93;;;;;;;18.58;64.85;99962.41;10463321;28;20463;-74
2023/06/15 19:38:31;;;;;;;4.80;4.47;;;;;;;18.35;66.07;99977.22;10463657;28;20052;-74
2023/06/15 19:43:35;;;;;;;4.93;4.45;;;;;;;18.25;67.39;99970.81;10464230;28;20033;-74
2023/06/15 19:48:37;;;;;;;5.10;4.70;;;;;;;18.38;66.89;99976.19;10463069;28;20457;-74
2023/06/15 19:53:40;;;;;;;5.93;5.35;;;;;;;18.12;67.13;99985.84;10463167;28;20494;-74
2023/06/15 19:58:42;;;;;;;5.78;5.13;;;;;;;18.10;68.41;99980.59;10462316;28;20069;-74
2023/06/15 20:03:45;;;;;;;7.80;5.00;;;;;;;17.93;69.26;99972.88;10461937;28;20068;-74
2023/06/15 20:08:47;;;;;;;5.57;5.18;;;;;;;17.88;71.09;99974.94;10461629;28;20052;-75
2023/06/15 20:13:49;;;;;;;6.13;5.35;;;;;;;17.62;72.52;99966.75;10462504;28;20048;-75
2023/06/15 20:18:53;;;;;;;7.60;5.95;;;;;;;17.38;73.83;99968.25;10462317;28;20064;-74
2023/06/15 20:23:54;;;;;;;5.93;5.50;;;;;;;17.46;73.34;99966.00;10462142;28;20434;-74
2023/06/15 20:28:57;;;;;;;6.30;5.82;;;;;;;16.97;77.18;99968.94;10461991;28;20368;-74
2023/06/15 20:33:59;;;;;;;6.68;5.85;;;;;;;17.01;76.57;99972.28;10462487;28;20045;-74
2023/06/15 20:39:01;;;;;;;7.93;5.82;;;;;;;17.35;73.61;99979.06;10460750;28;20576;-73
2023/06/15 20:44:03;;;;;;;5.85;5.40;;;;;;;17.05;75.64;99971.16;10462017;28;20033;-75
2023/06/15 20:49:05;;;;;;;6.00;5.60;;;;;;;16.71;76.74;99967.78;10461304;28;20051;-74
2023/06/15 20:54:06;;;;;;;6.20;5.70;;;;;;;16.84;76.69;99970.63;10460219;28;20136;-75
2023/06/15 20:59:09;;;;;;;7.07;6.38;;;;;;;16.94;75.58;99963.81;10461322;28;20128;-74
2023/06/15 21:04:16;;;;;;;5.68;5.18;;;;;;;16.65;78.11;99973.47;10460325;28;20116;-74
2023/06/15 21:09:17;;;;;;;5.63;5.10;;;;;;;16.47;79.08;99966.53;10459853;28;20116;-74
2023/06/15 21:14:19;;;;;;;6.00;5.50;;;;;;;16.51;78.49;99966.31;10460129;28;20045;-74
2023/06/15 21:19:21;;;;;;;5.50;5.10;;;;;;;16.42;79.61;99960.63;10460728;28;20040;-73
2023/06/15 21:24:23;;;;;;;6.00;5.32;;;;;;;16.61;78.01;99963.97;10460382;28;20040;-74
2023/06/15 21:29:25;;;;;;;7.85;7.10;;;;;;;16.49;79.54;99962.88;10458858;28;20467;-74
2023/06/15 21:34:27;;;;;;;8.40;7.45;;;;;;;16.47;79.92;99955.91;10458490;28;20049;-74
2023/06/15 21:39:28;;;;;;;8.45;7.75;;;;;;;16.33;80.09;99962.00;10458891;28;20135;-74
2023/06/15 21:44:30;;;;;;;9.05;8.32;;;;;;;16.24;78.82;99962.53;10458331;28;20045;-74
2023/06/15 21:49:32;;;;;;;8.77;8.07;;;;;;;16.26;79.32;99956.22;10457172;28;20072;-74
2023/06/15 21:54:34;;;;;;;11.18;8.75;;;;;;;16.22;79.69;99970.59;10459400;28;20075;-74
2023/06/15 21:59:36;;;;;;;8.50;7.90;;;;;;;16.09;80.58;99965.13;10459188;28;20102;-74
2023/06/15 22:04:38;;;;;;;8.30;7.60;;;;;;;16.02;80.08;99954.91;10459837;28;20465;-74
2023/06/15 22:09:40;;;;;;;7.53;6.93;;;;;;;15.88;80.64;99956.53;10457821;28;20047;-74
2023/06/15 22:14:42;;;;;;;7.40;6.70;;;;;;;15.93;80.08;99950.13;10458159;28;20053;-74
2023/06/15 22:19:44;;;;;;;6.57;6.07;;;;;;;16.09;79.52;99949.19;10458218;28;20127;-74
2023/06/15 22:24:45;;;;;;;6.80;6.20;;;;;;;15.79;81.65;99957.03;10457869;28;20068;-74
2023/06/15 22:29:51;;;;;;;6.65;6.07;;;;;;;15.70;81.50;99949.59;10456041;28;20417;-74
2023/06/15 22:34:53;;;;;;;7.28;6.28;;;;;;;15.95;82.08;99949.13;10457906;28;20056;-74
2023/06/15 22:39:54;;;;;;;6.32;5.82;;;;;;;15.65;82.26;99927.78;10458328;28;20435;-74
2023/06/15 22:44:56;;;;;;;7.28;6.70;;;;;;;15.27;84.96;99936.00;10457535;28;20056;-74
2023/06/15 22:50:00;;;;;;;6.35;5.85;;;;;;;15.13;85.59;99943.78;10457105;28;20044;-74
2023/06/15 22:55:02;;;;;;;6.28;5.78;;;;;;;15.20;85.51;99941.69;10441146;22;20398;-70
2023/06/15 23:00:09;;;;;;;7.55;6.25;;;;;;;15.26;86.02;99946.63;10417431;28;20114;-70
2023/06/15 23:05:16;;;;;;;9.15;5.85;;;;;;;15.31;83.68;99942.81;10425812;28;20041;-71
2023/06/15 23:10:20;;;;;;;5.68;4.75;;;;;;;14.94;83.90;99935.94;10425265;28;20494;-70
2023/06/15 23:15:24;;;;;;;5.95;4.72;;;;;;;14.98;81.02;99942.78;10426827;28;20513;-70
2023/06/15 23:20:28;;;;;;;5.22;4.80;;;;;;;14.90;80.82;99939.66;10426627;28;20034;-70
2023/06/15 23:25:30;;;;;;;5.28;4.78;;;;;;;14.44;84.45;99944.59;10427043;28;20080;-70